Aviation Digital Data Service (ADDS)

Output produced by METARs form (1308 UTC 21 May 2018)
found at http://aviationweather.gov/adds/metars/
 
KMSY 211128Z 2112/2218 VRB04KT P6SM SCT020 
     FM211700 02005KT P6SM VCTS FEW030CB 
     FM212100 07007KT P6SM FEW040 SCT100 
     PROB30 2121/2202 4SM TSRA BKN040CB 
     FM220300 VRB04KT P6SM FEW025 SCT110